Pagrindinis puslapis
METAR-TAF:

METAR-TAF

Oro uostai :

San Gabriel da Kašoeira, Amazonė, Brazilija

platuma: 00-08S, ilguma: 067-05W, Aukštis: 90 m

Dabartinis oras

Ataskaita buvo paskelbta 8 valandos ir 16 minutes, ne 19:00 UTC
Vėjas 3 kt iš Šiaurės Vakarų
Temperatūra 31°C
Drėgmė 71%
Slėgis 1010 hPa
Matomumas 10 km arba daugiau
Išsisklaidę debesys ne aukštis 3000 ft

METAR: SBUA 281900Z 31003KT 9999 SCT030 31/25 Q1010

Laikas: 23:16 (03:16 UTC)


TAF: trūkstamas

Orai ataskaitas ir orų prognozės (METAR, TAF).

turimą stotys yra geltonos ir raudonos taškus žemėlapyje.

Perkelti pele per norėdami pamatyti stoties vardą.

Tada spustelėkite, norėdami matyti oro stebėjimo ir prognozės.

Norėdami pakeisti žemėlapį: spustelėkite ant žalios mygtukų su juodo kryžiaus žemyn,; žalią mygtuką su brūkšneliu, jei norite nutolinti; arba žalių rodyklių gretimoms žemėlapius.


METAR-TAF: